Time;durP1;ratioP1;P1;durP2;ratioP2;P2;SDS_P1;SDS_P2;PMS_P1;PMS_P2;Temp;Humidity;BMP_temperature;BMP_pressure;BME280_temperature;BME280_humidity;BME280_pressure;Samples;Min_cycle;Max_cycle;Signal;HPM_P1;HPM_P2
2023/03/28 00:00:58;;;;;;;16.75;3.97;;;;;;;;;;4968179;28;20069;-66
2023/03/28 00:03:26;;;;;;;15.38;4.10;;;;;;;;;;4945660;28;20034;-66
2023/03/28 00:05:55;;;;;;;17.65;4.15;;;;;;;;;;4944801;28;20061;-66
2023/03/28 00:08:22;;;;;;;12.82;3.85;;;;;;;;;;4960347;28;20138;-66
2023/03/28 00:10:48;;;;;;;15.60;4.00;;;;;;;;;;4941137;28;20461;-67
2023/03/28 00:13:18;;;;;;;13.98;3.80;;;;;;;;;;4960910;28;20122;-67
2023/03/28 00:15:45;;;;;;;16.90;3.92;;;;;;;;;;4956671;28;20053;-66
2023/03/28 00:18:11;;;;;;;15.85;3.90;;;;;;;;;;4960582;28;20031;-67
2023/03/28 00:20:37;;;;;;;;;;;;;;;;;;4965361;28;20102;-66
2023/03/28 00:23:04;;;;;;;14.02;3.92;;;;;;;;;;4964936;28;19918;-66
2023/03/28 00:25:33;;;;;;;17.95;4.18;;;;;;;;;;4966515;28;20042;-65
2023/03/28 00:28:00;;;;;;;16.05;3.95;;;;;;;;;;4954510;28;20162;-65
2023/03/28 00:30:26;;;;;;;15.68;4.68;;;;;;;;;;4972707;28;20046;-65
2023/03/28 00:32:52;;;;;;;13.52;3.75;;;;;;;;;;4952798;28;20391;-65
2023/03/28 00:35:18;;;;;;;;;;;;;;;;;;4961158;28;20543;-66
2023/03/28 00:37:49;;;;;;;15.45;4.13;;;;;;;;;;4940704;28;20548;-65
2023/03/28 00:40:16;;;;;;;14.82;3.80;;;;;;;;;;4962694;28;20035;-66
2023/03/28 00:42:42;;;;;;;;;;;;;;;;;;4953249;28;20093;-66
2023/03/28 00:45:10;;;;;;;13.20;3.70;;;;;;;;;;4960915;28;20215;-66
2023/03/28 00:47:50;;;;;;;13.93;4.10;;;;;;;;;;4958254;28;20051;-66
2023/03/28 00:50:26;;;;;;;14.40;3.92;;;;;;;;;;4958660;28;20219;-66
2023/03/28 00:53:04;;;;;;;13.23;3.33;;;;;;;;;;4957602;28;20434;-66
2023/03/28 00:55:38;;;;;;;13.60;3.50;;;;;;;;;;4960116;28;20133;-66
2023/03/28 00:58:07;;;;;;;14.43;3.63;;;;;;;;;;4967379;28;20279;-66
2023/03/28 01:00:34;;;;;;;15.23;4.10;;;;;;;;;;4960700;28;20441;-67
2023/03/28 01:03:01;;;;;;;16.45;3.42;;;;;;;;;;4959903;28;20208;-67
2023/03/28 01:05:28;;;;;;;14.75;3.85;;;;;;;;;;4945248;28;20038;-65
2023/03/28 01:07:59;;;;;;;15.52;3.17;;;;;;;;;;4961154;28;20032;-65
2023/03/28 01:10:25;;;;;;;14.68;3.63;;;;;;;;;;4947904;28;20046;-66
2023/03/28 01:12:51;;;;;;;;;;;;;;;;;;4967457;28;20615;-66
2023/03/28 01:15:21;;;;;;;15.48;3.50;;;;;;;;;;4951338;28;19924;-66
2023/03/28 01:17:49;;;;;;;14.50;3.70;;;;;;;;;;4965096;28;20089;-66
2023/03/28 01:20:31;;;;;;;15.85;3.60;;;;;;;;;;4947425;28;20022;-66
2023/03/28 01:23:13;;;;;;;16.83;3.83;;;;;;;;;;4942234;28;20035;-66
2023/03/28 01:25:42;;;;;;;13.73;3.50;;;;;;;;;;4959100;28;20503;-66
2023/03/28 01:28:27;;;;;;;11.55;3.00;;;;;;;;;;4967374;28;20805;-66
2023/03/28 01:30:59;;;;;;;15.82;3.40;;;;;;;;;;4955954;28;20451;-66
2023/03/28 01:33:28;;;;;;;11.75;2.75;;;;;;;;;;4960554;28;20236;-66
2023/03/28 01:36:00;;;;;;;15.40;3.83;;;;;;;;;;4951297;28;20109;-67
2023/03/28 01:38:43;;;;;;;14.27;3.67;;;;;;;;;;4960916;28;20035;-67
2023/03/28 01:41:10;;;;;;;15.68;3.08;;;;;;;;;;4964985;28;20041;-66
2023/03/28 01:43:41;;;;;;;12.32;2.83;;;;;;;;;;4947194;28;20057;-67
2023/03/28 01:46:13;;;;;;;15.32;3.40;;;;;;;;;;4962603;28;20029;-67
2023/03/28 01:48:47;;;;;;;13.70;3.10;;;;;;;;;;4939348;28;20089;-66
2023/03/28 01:51:13;;;;;;;14.48;2.75;;;;;;;;;;4959728;28;20610;-66
2023/03/28 01:53:42;;;;;;;12.13;2.75;;;;;;;;;;4962742;28;20033;-67
2023/03/28 01:56:21;;;;;;;10.88;2.53;;;;;;;;;;4965900;28;20283;-66
2023/03/28 01:59:10;;;;;;;13.45;3.72;;;;;;;;;;4963665;28;20027;-66
2023/03/28 02:01:40;;;;;;;15.23;3.42;;;;;;;;;;4951078;28;20157;-67
2023/03/28 02:04:10;;;;;;;14.00;3.28;;;;;;;;;;4948294;28;20056;-66
2023/03/28 02:06:37;;;;;;;14.23;3.15;;;;;;;;;;4938415;28;20049;-66
2023/03/28 02:09:05;;;;;;;11.88;2.83;;;;;;;;;;4962954;28;20037;-66
2023/03/28 02:11:32;;;;;;;11.48;2.95;;;;;;;;;;4954782;28;20578;-66
2023/03/28 02:14:05;;;;;;;15.23;2.97;;;;;;;;;;4961822;28;20654;-66
2023/03/28 02:16:35;;;;;;;12.63;2.38;;;;;;;;;;4959369;28;20834;-67
2023/03/28 02:19:02;;;;;;;14.15;3.17;;;;;;;;;;4962329;28;20026;-66
2023/03/28 02:21:34;;;;;;;10.65;2.40;;;;;;;;;;4960727;28;20731;-67
2023/03/28 02:24:00;;;;;;;11.52;2.47;;;;;;;;;;4967123;28;20422;-66
2023/03/28 02:26:28;;;;;;;11.52;2.72;;;;;;;;;;4953661;28;20105;-66
2023/03/28 02:28:55;;;;;;;;;;;;;;;;;;4951637;28;20563;-66
2023/03/28 02:31:24;;;;;;;15.65;3.50;;;;;;;;;;4960754;28;20370;-66
2023/03/28 02:33:51;;;;;;;13.55;3.00;;;;;;;;;;4941192;28;20038;-66
2023/03/28 02:36:21;;;;;;;13.30;2.90;;;;;;;;;;4942329;28;20394;-66
2023/03/28 02:38:47;;;;;;;17.70;3.90;;;;;;;;;;4959290;28;20665;-66
2023/03/28 02:41:13;;;;;;;;;;;;;;;;;;4957542;28;20513;-67
2023/03/28 02:43:40;;;;;;;11.93;3.20;;;;;;;;;;4954587;28;19996;-67
2023/03/28 02:46:09;;;;;;;12.65;2.70;;;;;;;;;;4963385;28;20026;-65
2023/03/28 02:48:44;;;;;;;12.13;2.63;;;;;;;;;;4956661;28;20050;-65
2023/03/28 02:51:22;;;;;;;13.30;3.30;;;;;;;;;;4960612;28;20023;-65
2023/03/28 02:53:57;;;;;;;15.02;3.40;;;;;;;;;;4960570;28;20038;-65
2023/03/28 02:56:39;;;;;;;13.57;2.75;;;;;;;;;;4959987;28;20450;-64
2023/03/28 02:59:22;;;;;;;11.23;2.63;;;;;;;;;;4964724;28;20514;-65
2023/03/28 03:01:48;;;;;;;13.10;2.60;;;;;;;;;;4945162;28;20564;-66
2023/03/28 03:04:16;;;;;;;;;;;;;;;;;;4944027;28;20093;-65
2023/03/28 03:06:44;;;;;;;14.05;2.88;;;;;;;;;;4955132;28;19918;-66
2023/03/28 03:09:15;;;;;;;17.02;3.05;;;;;;;;;;4958779;28;20022;-65
2023/03/28 03:11:43;;;;;;;14.05;2.78;;;;;;;;;;4958707;28;20034;-65
2023/03/28 03:14:11;;;;;;;12.65;2.85;;;;;;;;;;4941279;28;20753;-65
2023/03/28 03:16:38;;;;;;;16.67;3.05;;;;;;;;;;4938657;28;20026;-66
2023/03/28 03:19:08;;;;;;;14.45;2.70;;;;;;;;;;4959047;28;20037;-66
2023/03/28 03:21:36;;;;;;;10.75;2.63;;;;;;;;;;4953111;28;20090;-66
2023/03/28 03:24:05;;;;;;;14.98;3.00;;;;;;;;;;4961558;28;20117;-66
2023/03/28 03:26:34;;;;;;;11.38;2.42;;;;;;;;;;4944455;28;20142;-66
2023/03/28 03:29:01;;;;;;;13.35;2.63;;;;;;;;;;4962435;28;20036;-66
2023/03/28 03:31:30;;;;;;;14.73;2.80;;;;;;;;;;4949915;28;20053;-66
2023/03/28 03:34:00;;;;;;;15.40;3.35;;;;;;;;;;4963574;28;20044;-66
2023/03/28 03:36:29;;;;;;;13.60;3.28;;;;;;;;;;4958348;28;20458;-68
2023/03/28 03:38:58;;;;;;;16.58;3.35;;;;;;;;;;4957567;28;20097;-65
2023/03/28 03:41:27;;;;;;;15.13;3.38;;;;;;;;;;4959496;28;20041;-66
2023/03/28 03:43:54;;;;;;;11.57;2.47;;;;;;;;;;4959398;28;20038;-66
2023/03/28 03:46:22;;;;;;;12.18;2.70;;;;;;;;;;4944443;28;20026;-66
2023/03/28 03:48:50;;;;;;;12.13;2.90;;;;;;;;;;4956476;28;20061;-66
2023/03/28 03:51:19;;;;;;;16.65;3.05;;;;;;;;;;4963900;28;20034;-66
2023/03/28 03:53:49;;;;;;;12.55;2.72;;;;;;;;;;4953919;28;20555;-66
2023/03/28 03:56:16;;;;;;;10.70;2.40;;;;;;;;;;4938228;28;20049;-66
2023/03/28 03:58:43;;;;;;;12.02;2.50;;;;;;;;;;4961127;28;20093;-65
2023/03/28 04:01:12;;;;;;;;;;;;;;;;;;4953151;28;20397;-65
2023/03/28 04:04:00;;;;;;;12.32;3.00;;;;;;;;;;4959204;28;20272;-67
2023/03/28 04:06:28;;;;;;;12.65;2.83;;;;;;;;;;4956178;28;20407;-67
2023/03/28 04:08:56;;;;;;;12.57;2.70;;;;;;;;;;4954295;28;20586;-67
2023/03/28 04:11:22;;;;;;;14.98;2.63;;;;;;;;;;4957700;28;20475;-65
2023/03/28 04:13:49;;;;;;;15.80;3.03;;;;;;;;;;4953897;28;20453;-65
2023/03/28 04:16:19;;;;;;;15.35;3.67;;;;;;;;;;4961101;28;20033;-65
2023/03/28 04:18:51;;;;;;;14.00;3.10;;;;;;;;;;4924702;28;20040;-65
2023/03/28 04:21:34;;;;;;;14.65;3.20;;;;;;;;;;4963343;28;20485;-65
2023/03/28 04:24:01;;;;;;;14.65;3.78;;;;;;;;;;4943376;28;20536;-65
2023/03/28 04:26:34;;;;;;;14.38;3.08;;;;;;;;;;4960758;28;20022;-64
2023/03/28 04:29:03;;;;;;;13.07;2.95;;;;;;;;;;4961897;28;20444;-65
2023/03/28 04:31:34;;;;;;;13.02;3.83;;;;;;;;;;4963662;28;20042;-65
2023/03/28 04:34:05;;;;;;;12.80;3.40;;;;;;;;;;4950222;28;20491;-65
2023/03/28 04:36:33;;;;;;;15.02;3.22;;;;;;;;;;4958681;28;20104;-66
2023/03/28 04:39:01;;;;;;;15.63;3.40;;;;;;;;;;4945594;28;20041;-65
2023/03/28 04:41:32;;;;;;;11.55;3.00;;;;;;;;;;4946719;28;20047;-65
2023/03/28 04:43:59;;;;;;;15.15;3.15;;;;;;;;;;4950150;28;20030;-64
2023/03/28 04:46:28;;;;;;;14.30;3.50;;;;;;;;;;4961122;28;20031;-65
2023/03/28 04:48:57;;;;;;;16.75;3.22;;;;;;;;;;4960279;28;20057;-65
2023/03/28 04:51:27;;;;;;;30.92;4.15;;;;;;;;;;4965296;28;20359;-65
2023/03/28 04:53:55;;;;;;;18.52;3.88;;;;;;;;;;4959373;28;20658;-66
2023/03/28 04:56:22;;;;;;;18.55;6.15;;;;;;;;;;4944611;28;20539;-65
2023/03/28 04:58:51;;;;;;;20.92;7.20;;;;;;;;;;4963104;28;20448;-65
2023/03/28 05:01:17;;;;;;;14.57;3.90;;;;;;;;;;4965147;28;20042;-67
2023/03/28 05:03:44;;;;;;;14.38;3.70;;;;;;;;;;4944748;28;20390;-67
2023/03/28 05:06:12;;;;;;;13.45;3.00;;;;;;;;;;4964185;28;20035;-65
2023/03/28 05:08:42;;;;;;;16.38;3.22;;;;;;;;;;4958207;28;20495;-65
2023/03/28 05:11:10;;;;;;;15.05;2.80;;;;;;;;;;4962049;28;20164;-66
2023/03/28 05:13:39;;;;;;;12.60;2.78;;;;;;;;;;4959229;28;20610;-66
2023/03/28 05:16:05;;;;;;;12.15;3.28;;;;;;;;;;4940325;28;20065;-66
2023/03/28 05:18:32;;;;;;;;;;;;;;;;;;4921772;28;20469;-66
2023/03/28 05:21:00;;;;;;;11.95;3.00;;;;;;;;;;4922650;28;20099;-66
2023/03/28 05:23:28;;;;;;;12.23;2.85;;;;;;;;;;4924175;28;20065;-67
2023/03/28 05:25:57;;;;;;;9.27;2.40;;;;;;;;;;4933621;28;20580;-66
2023/03/28 05:28:27;;;;;;;10.45;2.65;;;;;;;;;;4922502;28;20042;-66
2023/03/28 05:30:56;;;;;;;11.57;2.47;;;;;;;;;;4935578;28;20039;-66
2023/03/28 05:33:24;;;;;;;11.60;2.47;;;;;;;;;;4922513;28;20134;-66
2023/03/28 05:35:52;;;;;;;11.93;2.92;;;;;;;;;;4898791;29;20728;-66
2023/03/28 05:38:20;;;;;;;13.65;2.80;;;;;;;;;;4901389;29;20054;-67
2023/03/28 05:40:47;;;;;;;12.05;3.00;;;;;;;;;;4897100;29;20306;-66
2023/03/28 05:43:16;;;;;;;11.07;3.10;;;;;;;;;;4886442;29;20044;-67
2023/03/28 05:45:43;;;;;;;14.10;3.10;;;;;;;;;;4896756;29;20101;-67
2023/03/28 05:48:11;;;;;;;14.13;3.05;;;;;;;;;;4890360;29;20410;-67
2023/03/28 05:50:39;;;;;;;13.82;3.35;;;;;;;;;;4897142;29;20452;-67
2023/03/28 05:53:08;;;;;;;13.48;3.17;;;;;;;;;;4899390;29;20146;-64
2023/03/28 05:55:35;;;;;;;13.85;4.85;;;;;;;;;;4896560;29;20043;-65
2023/03/28 05:58:07;;;;;;;14.48;3.83;;;;;;;;;;4900243;29;20062;-65
2023/03/28 06:00:35;;;;;;;12.82;3.33;;;;;;;;;;4895922;29;20036;-64
2023/03/28 06:03:06;;;;;;;18.10;3.80;;;;;;;;;;4892959;29;20537;-67
2023/03/28 06:05:35;;;;;;;15.15;3.50;;;;;;;;;;4880777;29;20063;-66
2023/03/28 06:08:03;;;;;;;18.83;3.70;;;;;;;;;;4882318;29;20510;-65
2023/03/28 06:10:31;;;;;;;13.15;3.00;;;;;;;;;;4896895;29;20624;-65
2023/03/28 06:13:01;;;;;;;16.88;3.28;;;;;;;;;;4887097;29;20043;-65
2023/03/28 06:15:29;;;;;;;15.80;3.30;;;;;;;;;;4900309;29;20031;-67
2023/03/28 06:17:57;;;;;;;15.18;3.03;;;;;;;;;;4910061;28;20326;-65
2023/03/28 06:20:26;;;;;;;11.70;2.95;;;;;;;;;;4913691;28;20442;-65
2023/03/28 06:22:54;;;;;;;17.20;3.60;;;;;;;;;;4917637;28;20101;-65
2023/03/28 06:25:23;;;;;;;14.43;3.88;;;;;;;;;;4924333;28;20435;-66
2023/03/28 06:27:49;;;;;;;18.67;3.53;;;;;;;;;;4917738;28;20722;-68
2023/03/28 06:30:17;;;;;;;14.07;3.22;;;;;;;;;;4905901;29;20536;-65
2023/03/28 06:32:46;;;;;;;15.00;3.80;;;;;;;;;;4898490;29;20039;-65
2023/03/28 06:35:12;;;;;;;22.13;4.35;;;;;;;;;;4918967;28;20335;-65
2023/03/28 06:37:39;;;;;;;;;;;;;;;;;;4920256;28;20122;-65
2023/03/28 06:40:07;;;;;;;15.43;3.83;;;;;;;;;;4921241;28;20369;-65
2023/03/28 06:42:35;;;;;;;20.38;3.80;;;;;;;;;;4901077;29;20359;-66
2023/03/28 06:45:06;;;;;;;11.98;2.97;;;;;;;;;;4919673;28;20086;-65
2023/03/28 06:47:34;;;;;;;12.60;3.35;;;;;;;;;;4900752;29;20047;-65
2023/03/28 06:50:04;;;;;;;12.57;2.92;;;;;;;;;;4920939;28;20048;-66
2023/03/28 06:52:32;;;;;;;14.07;3.10;;;;;;;;;;4921653;28;20074;-66
2023/03/28 06:55:00;;;;;;;13.88;3.20;;;;;;;;;;4918820;29;20035;-66
2023/03/28 06:57:27;;;;;;;18.40;4.95;;;;;;;;;;4919247;29;20097;-67
2023/03/28 06:59:55;;;;;;;17.45;4.80;;;;;;;;;;4918316;29;20046;-65
2023/03/28 07:02:22;;;;;;;13.25;3.65;;;;;;;;;;4906822;28;20031;-67
2023/03/28 07:04:51;;;;;;;17.23;3.80;;;;;;;;;;4918209;28;20737;-67
2023/03/28 07:07:19;;;;;;;17.17;3.83;;;;;;;;;;4920614;28;20027;-66
2023/03/28 07:09:48;;;;;;;16.55;3.80;;;;;;;;;;4917796;28;20079;-67
2023/03/28 07:12:17;;;;;;;14.50;3.45;;;;;;;;;;4943198;28;20034;-66
2023/03/28 07:14:46;;;;;;;13.43;3.35;;;;;;;;;;4956889;28;20038;-66
2023/03/28 07:17:14;;;;;;;15.98;3.17;;;;;;;;;;4960842;28;20030;-66
2023/03/28 07:19:44;;;;;;;16.65;3.05;;;;;;;;;;4957465;28;20130;-66
2023/03/28 07:22:13;;;;;;;13.43;2.70;;;;;;;;;;4957941;28;20887;-66
2023/03/28 07:24:42;;;;;;;14.48;2.85;;;;;;;;;;4955337;28;20043;-66
2023/03/28 07:27:11;;;;;;;20.23;3.00;;;;;;;;;;4959420;28;20375;-67
2023/03/28 07:29:38;;;;;;;11.30;2.70;;;;;;;;;;4955400;28;20588;-65
2023/03/28 07:32:07;;;;;;;15.60;2.22;;;;;;;;;;4954124;28;20053;-66
2023/03/28 07:34:34;;;;;;;23.30;3.20;;;;;;;;;;4940087;28;20090;-66
2023/03/28 07:37:02;;;;;;;13.05;2.42;;;;;;;;;;4939811;28;20031;-65
2023/03/28 07:39:29;;;;;;;11.35;2.60;;;;;;;;;;4954646;28;20030;-67
2023/03/28 07:41:56;;;;;;;;;;;;;;;;;;4953870;28;20026;-67
2023/03/28 07:44:23;;;;;;;11.60;2.90;;;;;;;;;;4954618;28;20004;-64
2023/03/28 07:46:51;;;;;;;14.68;2.47;;;;;;;;;;4957127;28;20156;-65
2023/03/28 07:49:20;;;;;;;15.18;2.65;;;;;;;;;;4955002;28;20030;-65
2023/03/28 07:51:48;;;;;;;11.85;2.13;;;;;;;;;;4955589;28;20097;-67
2023/03/28 07:54:23;;;;;;;10.68;2.10;;;;;;;;;;4958136;28;20031;-67
2023/03/28 07:56:59;;;;;;;12.85;2.60;;;;;;;;;;4955823;28;20071;-65
2023/03/28 07:59:26;;;;;;;13.60;2.80;;;;;;;;;;4960880;28;20056;-65
2023/03/28 08:01:54;;;;;;;11.60;2.55;;;;;;;;;;4950706;28;20034;-66
2023/03/28 08:04:21;;;;;;;13.02;2.35;;;;;;;;;;4957703;28;20023;-65
2023/03/28 08:06:51;;;;;;;12.88;2.67;;;;;;;;;;4952930;28;20513;-65
2023/03/28 08:09:18;;;;;;;13.38;2.75;;;;;;;;;;4953869;28;20369;-66
2023/03/28 08:11:44;;;;;;;13.02;2.70;;;;;;;;;;4939464;28;20446;-65
2023/03/28 08:14:14;;;;;;;11.77;2.45;;;;;;;;;;4961123;28;20462;-65
2023/03/28 08:16:42;;;;;;;10.70;2.53;;;;;;;;;;4955281;28;20102;-66
2023/03/28 08:19:09;;;;;;;12.00;2.78;;;;;;;;;;4953638;28;20387;-66
2023/03/28 08:21:38;;;;;;;14.93;2.78;;;;;;;;;;4933741;28;20052;-66
2023/03/28 08:24:06;;;;;;;14.93;2.40;;;;;;;;;;4954858;28;20132;-66
2023/03/28 08:26:35;;;;;;;13.45;2.72;;;;;;;;;;4952960;28;20035;-66
2023/03/28 08:29:05;;;;;;;15.77;2.80;;;;;;;;;;4953735;28;20035;-66
2023/03/28 08:31:34;;;;;;;13.90;2.95;;;;;;;;;;4956930;28;20559;-65
2023/03/28 08:34:01;;;;;;;13.82;3.13;;;;;;;;;;4956844;28;20724;-65
2023/03/28 08:36:30;;;;;;;11.23;2.80;;;;;;;;;;4958472;28;20023;-65
2023/03/28 08:38:59;;;;;;;12.25;2.97;;;;;;;;;;4938700;28;20385;-65
2023/03/28 08:41:44;;;;;;;14.98;2.92;;;;;;;;;;4939555;28;20439;-66
2023/03/28 08:44:31;;;;;;;10.18;2.45;;;;;;;;;;4959710;28;20126;-65
2023/03/28 08:47:05;;;;;;;11.07;2.80;;;;;;;;;;4939722;28;20352;-65
2023/03/28 08:49:35;;;;;;;15.10;3.05;;;;;;;;;;4923136;28;20035;-66
2023/03/28 08:52:04;;;;;;;11.35;2.67;;;;;;;;;;4941169;28;20214;-65
2023/03/28 08:54:40;;;;;;;12.38;2.97;;;;;;;;;;4955339;28;20385;-67
2023/03/28 08:57:10;;;;;;;14.57;2.90;;;;;;;;;;4955023;28;20038;-67
2023/03/28 08:59:42;;;;;;;12.32;2.65;;;;;;;;;;4935229;28;20342;-67
2023/03/28 09:02:18;;;;;;;11.23;2.65;;;;;;;;;;4957773;28;20038;-67
2023/03/28 09:04:45;;;;;;;11.02;2.67;;;;;;;;;;4940921;28;20038;-65
2023/03/28 09:07:33;;;;;;;11.38;2.45;;;;;;;;;;4936642;28;20097;-65
2023/03/28 09:10:01;;;;;;;;;;;;;;;;;;4958412;28;20030;-68
2023/03/28 09:12:45;;;;;;;14.50;2.78;;;;;;;;;;4959011;28;19910;-66
2023/03/28 09:15:30;;;;;;;11.20;2.75;;;;;;;;;;4954373;28;20113;-67
2023/03/28 09:18:23;;;;;;;17.88;3.25;;;;;;;;;;4958021;28;20528;-67
2023/03/28 09:21:21;;;;;;;13.98;3.60;;;;;;;;;;4869968;29;20235;-65
2023/03/28 09:23:55;;;;;;;14.40;3.50;;;;;;;;;;4878971;29;20052;-65
2023/03/28 09:26:24;;;;;;;13.23;4.32;;;;;;;;;;4889887;29;20283;-66
2023/03/28 09:29:03;;;;;;;16.05;5.50;;;;;;;;;;4876853;29;20661;-66
2023/03/28 09:31:50;;;;;;;14.65;4.68;;;;;;;;;;4887988;29;20044;-66
2023/03/28 09:34:35;;;;;;;16.92;3.80;;;;;;;;;;4891038;29;20246;-65
2023/03/28 09:37:17;;;;;;;15.70;3.60;;;;;;;;;;4884637;29;21318;-66
2023/03/28 09:39:50;;;;;;;19.42;4.43;;;;;;;;;;4883065;29;20036;-65
2023/03/28 09:42:36;;;;;;;16.27;4.00;;;;;;;;;;4873237;29;20155;-65
2023/03/28 09:45:06;;;;;;;14.43;3.90;;;;;;;;;;4870275;29;20072;-65
2023/03/28 09:47:34;;;;;;;13.73;3.00;;;;;;;;;;4883525;29;20182;-66
2023/03/28 09:50:02;;;;;;;13.55;3.03;;;;;;;;;;4886940;29;20020;-66
2023/03/28 09:52:31;;;;;;;13.10;3.05;;;;;;;;;;4885909;29;20182;-65
2023/03/28 09:55:03;;;;;;;15.30;3.35;;;;;;;;;;4886260;29;20040;-66
2023/03/28 09:57:50;;;;;;;17.77;3.53;;;;;;;;;;4917028;28;20053;-66
2023/03/28 10:00:24;;;;;;;12.52;3.42;;;;;;;;;;4956863;28;20125;-66
2023/03/28 10:02:55;;;;;;;14.27;3.15;;;;;;;;;;4939286;28;20387;-66
2023/03/28 10:05:44;;;;;;;10.38;2.63;;;;;;;;;;4957247;28;20582;-66
2023/03/28 10:08:35;;;;;;;13.25;2.88;;;;;;;;;;4960163;28;20030;-66
2023/03/28 10:11:21;;;;;;;10.45;2.45;;;;;;;;;;4964057;28;20666;-66
2023/03/28 10:13:50;;;;;;;14.13;3.33;;;;;;;;;;4957632;28;20118;-65
2023/03/28 10:16:30;;;;;;;9.73;2.25;;;;;;;;;;4958097;28;20032;-66
2023/03/28 10:19:02;;;;;;;9.80;2.25;;;;;;;;;;4961282;28;20137;-67
2023/03/28 10:21:31;;;;;;;11.45;2.78;;;;;;;;;;4962798;28;20165;-65
2023/03/28 10:24:08;;;;;;;10.52;2.63;;;;;;;;;;4963055;28;20033;-65
2023/03/28 10:26:36;;;;;;;13.45;2.42;;;;;;;;;;4934265;28;20034;-65
2023/03/28 10:29:05;;;;;;;11.80;2.72;;;;;;;;;;4954990;28;20022;-65
2023/03/28 10:31:33;;;;;;;12.82;2.70;;;;;;;;;;4940722;28;20363;-66
2023/03/28 10:34:03;;;;;;;12.25;2.58;;;;;;;;;;4949497;28;20038;-66
2023/03/28 10:36:49;;;;;;;11.77;2.67;;;;;;;;;;4943926;28;20105;-65
2023/03/28 10:39:25;;;;;;;11.07;2.60;;;;;;;;;;4959829;28;20154;-65
2023/03/28 10:41:54;;;;;;;12.45;2.78;;;;;;;;;;4956603;28;20475;-67
2023/03/28 10:44:32;;;;;;;9.48;2.63;;;;;;;;;;4930213;28;20941;-66
2023/03/28 10:47:14;;;;;;;11.07;2.40;;;;;;;;;;4957828;28;20870;-66
2023/03/28 10:49:54;;;;;;;9.68;2.53;;;;;;;;;;4938606;28;20030;-65
2023/03/28 10:52:40;;;;;;;12.60;2.90;;;;;;;;;;4943002;28;20034;-66
2023/03/28 10:55:26;;;;;;;11.25;2.92;;;;;;;;;;4954199;28;20036;-66
2023/03/28 10:58:27;;;;;;;12.27;2.95;;;;;;;;;;4952511;28;20035;-69
2023/03/28 11:01:13;;;;;;;10.55;2.50;;;;;;;;;;4932816;28;20038;-66
2023/03/28 11:03:59;;;;;;;11.57;2.50;;;;;;;;;;4955484;28;20043;-67
2023/03/28 11:06:28;;;;;;;9.02;2.28;;;;;;;;;;4957979;28;20299;-65
2023/03/28 11:09:15;;;;;;;11.30;2.35;;;;;;;;;;4954388;28;20307;-65
2023/03/28 11:12:13;;;;;;;9.38;2.80;;;;;;;;;;4936487;28;20295;-66
2023/03/28 11:14:55;;;;;;;11.98;2.40;;;;;;;;;;4901353;29;20047;-66
2023/03/28 11:17:58;;;;;;;12.23;2.67;;;;;;;;;;4899696;29;20036;-66
2023/03/28 11:20:43;;;;;;;10.05;2.05;;;;;;;;;;4847165;29;20559;-66
2023/03/28 11:23:19;;;;;;;10.18;2.47;;;;;;;;;;4845386;29;20307;-66
2023/03/28 11:26:07;;;;;;;9.98;2.17;;;;;;;;;;4817411;29;20077;-66
2023/03/28 11:28:52;;;;;;;12.00;2.03;;;;;;;;;;4839314;29;20069;-68
2023/03/28 11:31:37;;;;;;;10.75;2.22;;;;;;;;;;4844573;29;20047;-65
2023/03/28 11:34:22;;;;;;;9.18;2.10;;;;;;;;;;4840692;29;20089;-66
2023/03/28 11:37:06;;;;;;;10.00;2.08;;;;;;;;;;4843795;29;20609;-66
2023/03/28 11:39:53;;;;;;;11.70;2.30;;;;;;;;;;4841368;29;20048;-65
2023/03/28 11:42:36;;;;;;;11.50;2.50;;;;;;;;;;4842772;29;20233;-65
2023/03/28 11:45:26;;;;;;;11.55;2.63;;;;;;;;;;4827757;29;20060;-66
2023/03/28 11:48:13;;;;;;;12.60;2.40;;;;;;;;;;4838487;29;20050;-67
2023/03/28 11:50:45;;;;;;;10.73;2.30;;;;;;;;;;4853233;29;20135;-66
2023/03/28 11:53:15;;;;;;;9.05;2.13;;;;;;;;;;4880196;29;20036;-66
2023/03/28 11:55:49;;;;;;;14.35;2.10;;;;;;;;;;4933492;28;20471;-67
2023/03/28 11:58:28;;;;;;;8.88;1.98;;;;;;;;;;4935959;28;20133;-66
2023/03/28 12:01:12;;;;;;;10.13;2.53;;;;;;;;;;4922064;28;20042;-66
2023/03/28 12:03:58;;;;;;;11.07;2.25;;;;;;;;;;4950817;28;20041;-65
2023/03/28 12:06:43;;;;;;;11.23;2.30;;;;;;;;;;4942452;28;20039;-66
2023/03/28 12:09:28;;;;;;;10.10;1.98;;;;;;;;;;4953343;28;20034;-65
2023/03/28 12:12:15;;;;;;;10.00;2.20;;;;;;;;;;4955606;28;20039;-65
2023/03/28 12:14:47;;;;;;;12.25;2.50;;;;;;;;;;4934030;28;20031;-66
2023/03/28 12:17:23;;;;;;;12.43;2.47;;;;;;;;;;4953094;28;20144;-65
2023/03/28 12:19:52;;;;;;;10.68;2.63;;;;;;;;;;4933782;28;20039;-67
2023/03/28 12:22:34;;;;;;;10.55;2.58;;;;;;;;;;4955454;28;20065;-65
2023/03/28 12:25:19;;;;;;;9.68;2.20;;;;;;;;;;4953422;28;20088;-66
2023/03/28 12:28:04;;;;;;;13.02;2.53;;;;;;;;;;4934150;28;20043;-66
2023/03/28 12:31:05;;;;;;;12.05;2.63;;;;;;;;;;4962264;28;20058;-66
2023/03/28 12:33:51;;;;;;;11.38;2.47;;;;;;;;;;4878053;29;20056;-65
2023/03/28 12:36:19;;;;;;;;;;;;;;;;;;4881867;29;20299;-67
2023/03/28 12:38:57;;;;;;;11.10;2.03;;;;;;;;;;4874685;29;19927;-67
2023/03/28 12:41:28;;;;;;;11.77;2.67;;;;;;;;;;4861646;29;20229;-66
2023/03/28 12:44:09;;;;;;;12.35;2.50;;;;;;;;;;4873765;29;20036;-68
2023/03/28 12:46:47;;;;;;;11.27;2.42;;;;;;;;;;4877155;29;20637;-65
2023/03/28 12:49:35;;;;;;;12.30;2.35;;;;;;;;;;4877739;29;20303;-66
2023/03/28 12:52:05;;;;;;;10.82;2.45;;;;;;;;;;4868235;29;20036;-65
2023/03/28 12:54:33;;;;;;;13.75;2.78;;;;;;;;;;4885611;29;20519;-66
2023/03/28 12:57:09;;;;;;;10.18;2.50;;;;;;;;;;4880497;29;20783;-65
2023/03/28 12:59:47;;;;;;;11.27;2.47;;;;;;;;;;4881588;29;20131;-65
2023/03/28 13:02:45;;;;;;;10.90;1.95;;;;;;;;;;4883828;29;20497;-66
2023/03/28 13:05:22;;;;;;;13.70;2.50;;;;;;;;;;4854676;29;20545;-65
2023/03/28 13:08:06;;;;;;;11.85;2.50;;;;;;;;;;4845335;29;20043;-65
2023/03/28 13:10:52;;;;;;;9.35;2.17;;;;;;;;;;4937513;28;20217;-66
2023/03/28 13:13:39;;;;;;;12.10;2.67;;;;;;;;;;4925377;28;20045;-66
2023/03/28 13:16:25;;;;;;;13.60;2.75;;;;;;;;;;4941749;28;20646;-66
2023/03/28 13:19:06;;;;;;;12.13;2.47;;;;;;;;;;4938815;28;20610;-65
2023/03/28 13:21:50;;;;;;;12.48;2.35;;;;;;;;;;4938088;28;20552;-66
2023/03/28 13:24:35;;;;;;;10.85;2.30;;;;;;;;;;4939347;28;20154;-66
2023/03/28 13:27:29;;;;;;;12.65;2.55;;;;;;;;;;4905844;28;20629;-65
2023/03/28 13:30:08;;;;;;;11.55;2.42;;;;;;;;;;4924722;28;20050;-66
2023/03/28 13:32:39;;;;;;;13.63;2.78;;;;;;;;;;4924891;28;20496;-66
2023/03/28 13:35:07;;;;;;;10.73;2.40;;;;;;;;;;4941643;28;20037;-66
2023/03/28 13:37:46;;;;;;;10.82;2.50;;;;;;;;;;4957780;28;20114;-66
2023/03/28 13:40:31;;;;;;;15.93;2.78;;;;;;;;;;4941493;28;20552;-66
2023/03/28 13:43:01;;;;;;;10.85;2.50;;;;;;;;;;4959416;28;20033;-66
2023/03/28 13:45:37;;;;;;;13.07;2.38;;;;;;;;;;4958188;28;20096;-66
2023/03/28 13:48:05;;;;;;;11.40;1.98;;;;;;;;;;4961634;28;20469;-66
2023/03/28 13:50:34;;;;;;;11.80;2.70;;;;;;;;;;4945972;28;20718;-66
2023/03/28 13:53:03;;;;;;;14.23;2.40;;;;;;;;;;4930902;28;20637;-66
2023/03/28 13:55:32;;;;;;;7.78;1.88;;;;;;;;;;4963230;28;20542;-66
2023/03/28 13:58:00;;;;;;;11.73;2.47;;;;;;;;;;4947677;28;20188;-66
2023/03/28 14:00:29;;;;;;;11.25;2.40;;;;;;;;;;4963331;28;20038;-67
2023/03/28 14:03:03;;;;;;;11.25;2.58;;;;;;;;;;4956608;28;20018;-67
2023/03/28 14:05:34;;;;;;;9.55;2.17;;;;;;;;;;4963467;28;20112;-66
2023/03/28 14:08:16;;;;;;;10.40;2.33;;;;;;;;;;4942269;28;20041;-67
2023/03/28 14:10:44;;;;;;;12.27;2.35;;;;;;;;;;4951617;28;20276;-67
2023/03/28 14:13:16;;;;;;;10.20;2.47;;;;;;;;;;4959966;28;20434;-66
2023/03/28 14:15:44;;;;;;;11.38;3.08;;;;;;;;;;4944164;28;20044;-66
2023/03/28 14:18:19;;;;;;;13.38;3.40;;;;;;;;;;4945244;28;20049;-66
2023/03/28 14:20:48;;;;;;;12.73;3.13;;;;;;;;;;4959342;28;20042;-66
2023/03/28 14:23:30;;;;;;;14.07;3.30;;;;;;;;;;4939163;28;20591;-66
2023/03/28 14:26:01;;;;;;;13.25;2.65;;;;;;;;;;4953761;28;20196;-65
2023/03/28 14:28:29;;;;;;;13.95;3.40;;;;;;;;;;4941508;28;20065;-65
2023/03/28 14:30:59;;;;;;;13.68;3.15;;;;;;;;;;4956141;28;20041;-65
2023/03/28 14:33:30;;;;;;;16.65;4.70;;;;;;;;;;4943240;28;20041;-65
2023/03/28 14:36:01;;;;;;;16.23;3.75;;;;;;;;;;4962824;28;20054;-65
2023/03/28 14:38:36;;;;;;;13.60;3.00;;;;;;;;;;4940927;28;20334;-65
2023/03/28 14:41:09;;;;;;;20.50;4.07;;;;;;;;;;4957821;28;20396;-65
2023/03/28 14:43:36;;;;;;;23.42;3.50;;;;;;;;;;4958319;28;20433;-66
2023/03/28 14:46:08;;;;;;;15.57;3.10;;;;;;;;;;4943474;28;20030;-66
2023/03/28 14:48:38;;;;;;;12.85;3.60;;;;;;;;;;4956164;28;20027;-66
2023/03/28 14:51:05;;;;;;;12.23;3.05;;;;;;;;;;4946128;28;20860;-66
2023/03/28 14:53:37;;;;;;;14.00;3.42;;;;;;;;;;4958506;28;20035;-66
2023/03/28 14:56:11;;;;;;;11.15;3.20;;;;;;;;;;4940053;28;20513;-65
2023/03/28 14:58:44;;;;;;;12.98;3.03;;;;;;;;;;4954318;28;20425;-65
2023/03/28 15:01:21;;;;;;;15.57;3.38;;;;;;;;;;4959088;28;20030;-65
2023/03/28 15:04:09;;;;;;;13.07;2.90;;;;;;;;;;4954387;28;20321;-66
2023/03/28 15:06:38;;;;;;;13.57;3.15;;;;;;;;;;4948967;28;20903;-65
2023/03/28 15:09:28;;;;;;;12.65;3.28;;;;;;;;;;4940132;28;20041;-66